sensor_id;sensor_type;location;lat;lon;timestamp;temperature;humidity
63966;DHT22;50151;52.030;5.350;2023-05-08T00:00:15;13.50;99.90
63966;DHT22;50151;52.030;5.350;2023-05-08T00:02:42;13.50;99.90
63966;DHT22;50151;52.030;5.350;2023-05-08T00:05:09;13.50;99.90
63966;DHT22;50151;52.030;5.350;2023-05-08T00:07:36;13.60;99.90
63966;DHT22;50151;52.030;5.350;2023-05-08T00:10:04;13.60;99.90
63966;DHT22;50151;52.030;5.350;2023-05-08T00:12:31;13.60;99.90
63966;DHT22;50151;52.030;5.350;2023-05-08T00:14:58;13.60;99.90
63966;DHT22;50151;52.030;5.350;2023-05-08T00:17:28;13.60;99.90
63966;DHT22;50151;52.030;5.350;2023-05-08T00:19:55;13.60;99.90
63966;DHT22;50151;52.030;5.350;2023-05-08T00:22:22;13.60;99.90
63966;DHT22;50151;52.030;5.350;2023-05-08T00:24:49;13.60;99.90
63966;DHT22;50151;52.030;5.350;2023-05-08T00:27:15;13.60;99.90
63966;DHT22;50151;52.030;5.350;2023-05-08T00:29:42;13.50;99.90
63966;DHT22;50151;52.030;5.350;2023-05-08T00:32:08;13.50;99.90
63966;DHT22;50151;52.030;5.350;2023-05-08T00:34:35;13.50;99.90
63966;DHT22;50151;52.030;5.350;2023-05-08T00:37:02;13.50;99.90
63966;DHT22;50151;52.030;5.350;2023-05-08T00:39:29;13.40;99.90
63966;DHT22;50151;52.030;5.350;2023-05-08T00:41:56;13.40;99.90
63966;DHT22;50151;52.030;5.350;2023-05-08T00:44:23;13.50;99.90
63966;DHT22;50151;52.030;5.350;2023-05-08T00:46:51;13.40;99.90
63966;DHT22;50151;52.030;5.350;2023-05-08T00:49:18;13.40;99.90
63966;DHT22;50151;52.030;5.350;2023-05-08T00:51:46;13.30;99.90
63966;DHT22;50151;52.030;5.350;2023-05-08T00:54:13;13.30;99.90
63966;DHT22;50151;52.030;5.350;2023-05-08T00:56:40;13.30;99.90
63966;DHT22;50151;52.030;5.350;2023-05-08T00:59:10;13.30;99.90
63966;DHT22;50151;52.030;5.350;2023-05-08T01:01:37;13.30;99.90
63966;DHT22;50151;52.030;5.350;2023-05-08T01:04:04;13.30;99.90
63966;DHT22;50151;52.030;5.350;2023-05-08T01:06:31;13.30;99.90
63966;DHT22;50151;52.030;5.350;2023-05-08T01:09:00;13.20;99.90
63966;DHT22;50151;52.030;5.350;2023-05-08T01:14:06;13.20;99.90
63966;DHT22;50151;52.030;5.350;2023-05-08T01:16:47;13.20;99.90
63966;DHT22;50151;52.030;5.350;2023-05-08T01:19:51;13.20;99.90
63966;DHT22;50151;52.030;5.350;2023-05-08T01:34:05;13.10;99.90
63966;DHT22;50151;52.030;5.350;2023-05-08T01:39:13;13.00;99.90
63966;DHT22;50151;52.030;5.350;2023-05-08T01:41:52;13.00;99.90
63966;DHT22;50151;52.030;5.350;2023-05-08T01:44:25;13.00;99.90
63966;DHT22;50151;52.030;5.350;2023-05-08T01:46:54;13.00;99.90
63966;DHT22;50151;52.030;5.350;2023-05-08T01:49:29;12.90;99.90
63966;DHT22;50151;52.030;5.350;2023-05-08T01:52:08;12.90;99.90
63966;DHT22;50151;52.030;5.350;2023-05-08T01:54:42;12.80;99.90
63966;DHT22;50151;52.030;5.350;2023-05-08T01:57:11;12.80;99.90
63966;DHT22;50151;52.030;5.350;2023-05-08T01:59:40;12.80;99.90
63966;DHT22;50151;52.030;5.350;2023-05-08T02:02:09;12.80;99.90
63966;DHT22;50151;52.030;5.350;2023-05-08T02:04:37;12.80;99.90
63966;DHT22;50151;52.030;5.350;2023-05-08T02:07:05;12.80;99.90
63966;DHT22;50151;52.030;5.350;2023-05-08T02:09:33;12.80;99.90
63966;DHT22;50151;52.030;5.350;2023-05-08T02:12:01;12.70;99.90
63966;DHT22;50151;52.030;5.350;2023-05-08T02:14:30;12.70;99.90
63966;DHT22;50151;52.030;5.350;2023-05-08T02:16:58;12.70;99.90
63966;DHT22;50151;52.030;5.350;2023-05-08T02:19:26;12.70;99.90
63966;DHT22;50151;52.030;5.350;2023-05-08T02:21:56;12.60;99.90
63966;DHT22;50151;52.030;5.350;2023-05-08T02:24:24;12.60;99.90
63966;DHT22;50151;52.030;5.350;2023-05-08T02:26:52;12.60;99.90
63966;DHT22;50151;52.030;5.350;2023-05-08T02:29:21;12.50;99.90
63966;DHT22;50151;52.030;5.350;2023-05-08T02:31:49;12.60;99.90
63966;DHT22;50151;52.030;5.350;2023-05-08T02:34:17;12.50;99.90
63966;DHT22;50151;52.030;5.350;2023-05-08T02:36:45;12.50;99.90
63966;DHT22;50151;52.030;5.350;2023-05-08T02:39:14;12.40;99.90
63966;DHT22;50151;52.030;5.350;2023-05-08T02:41:43;12.40;99.90
63966;DHT22;50151;52.030;5.350;2023-05-08T02:44:10;12.50;99.90
63966;DHT22;50151;52.030;5.350;2023-05-08T02:46:49;12.50;99.90
63966;DHT22;50151;52.030;5.350;2023-05-08T02:49:42;12.40;99.90
63966;DHT22;50151;52.030;5.350;2023-05-08T02:52:24;12.40;99.90
63966;DHT22;50151;52.030;5.350;2023-05-08T02:55:00;12.40;99.90
63966;DHT22;50151;52.030;5.350;2023-05-08T02:58:00;12.40;99.90
63966;DHT22;50151;52.030;5.350;2023-05-08T03:00:32;12.40;99.90
63966;DHT22;50151;52.030;5.350;2023-05-08T03:03:06;12.30;99.90
63966;DHT22;50151;52.030;5.350;2023-05-08T03:05:34;12.30;99.90
63966;DHT22;50151;52.030;5.350;2023-05-08T03:08:05;12.30;99.90
63966;DHT22;50151;52.030;5.350;2023-05-08T03:10:35;12.30;99.90
63966;DHT22;50151;52.030;5.350;2023-05-08T03:13:04;12.20;99.90
63966;DHT22;50151;52.030;5.350;2023-05-08T03:15:41;12.20;99.90
63966;DHT22;50151;52.030;5.350;2023-05-08T03:18:12;12.20;99.90
63966;DHT22;50151;52.030;5.350;2023-05-08T03:20:43;12.20;99.90
63966;DHT22;50151;52.030;5.350;2023-05-08T03:23:12;12.10;99.90
63966;DHT22;50151;52.030;5.350;2023-05-08T03:25:42;12.10;99.90
63966;DHT22;50151;52.030;5.350;2023-05-08T03:28:09;12.00;99.90
63966;DHT22;50151;52.030;5.350;2023-05-08T03:30:38;12.00;99.90
63966;DHT22;50151;52.030;5.350;2023-05-08T03:33:06;12.00;99.90
63966;DHT22;50151;52.030;5.350;2023-05-08T03:35:37;12.00;99.90
63966;DHT22;50151;52.030;5.350;2023-05-08T03:38:05;12.00;99.90
63966;DHT22;50151;52.030;5.350;2023-05-08T03:40:33;12.00;99.90
63966;DHT22;50151;52.030;5.350;2023-05-08T03:43:09;12.00;99.90
63966;DHT22;50151;52.030;5.350;2023-05-08T03:45:38;11.90;99.90
63966;DHT22;50151;52.030;5.350;2023-05-08T03:48:06;11.90;99.90
63966;DHT22;50151;52.030;5.350;2023-05-08T03:50:35;11.90;99.90
63966;DHT22;50151;52.030;5.350;2023-05-08T03:53:02;11.90;99.90
63966;DHT22;50151;52.030;5.350;2023-05-08T03:55:29;11.90;99.90
63966;DHT22;50151;52.030;5.350;2023-05-08T04:00:28;11.90;99.90
63966;DHT22;50151;52.030;5.350;2023-05-08T04:03:17;11.80;99.90
63966;DHT22;50151;52.030;5.350;2023-05-08T04:05:58;11.80;99.90
63966;DHT22;50151;52.030;5.350;2023-05-08T04:08:33;11.80;99.90
63966;DHT22;50151;52.030;5.350;2023-05-08T04:11:08;11.80;99.90
63966;DHT22;50151;52.030;5.350;2023-05-08T04:13:42;11.80;99.90
63966;DHT22;50151;52.030;5.350;2023-05-08T04:16:17;11.80;99.90
63966;DHT22;50151;52.030;5.350;2023-05-08T04:18:45;11.80;99.90
63966;DHT22;50151;52.030;5.350;2023-05-08T04:21:18;11.80;99.90
63966;DHT22;50151;52.030;5.350;2023-05-08T04:23:47;11.80;99.90
63966;DHT22;50151;52.030;5.350;2023-05-08T04:26:17;11.80;99.90
63966;DHT22;50151;52.030;5.350;2023-05-08T04:28:44;11.80;99.90
63966;DHT22;50151;52.030;5.350;2023-05-08T04:31:18;11.80;99.90
63966;DHT22;50151;52.030;5.350;2023-05-08T04:33:45;11.80;99.90
63966;DHT22;50151;52.030;5.350;2023-05-08T04:36:13;11.90;99.90
63966;DHT22;50151;52.030;5.350;2023-05-08T04:38:40;11.80;99.90
63966;DHT22;50151;52.030;5.350;2023-05-08T04:41:07;11.90;99.90
63966;DHT22;50151;52.030;5.350;2023-05-08T04:43:34;11.90;99.90
63966;DHT22;50151;52.030;5.350;2023-05-08T04:46:03;11.90;99.90
63966;DHT22;50151;52.030;5.350;2023-05-08T04:48:30;11.90;99.90
63966;DHT22;50151;52.030;5.350;2023-05-08T04:50:59;12.00;99.90
63966;DHT22;50151;52.030;5.350;2023-05-08T04:53:26;12.00;99.90
63966;DHT22;50151;52.030;5.350;2023-05-08T04:55:53;12.00;99.90
63966;DHT22;50151;52.030;5.350;2023-05-08T04:58:19;12.10;99.90
63966;DHT22;50151;52.030;5.350;2023-05-08T05:00:47;12.10;99.90
63966;DHT22;50151;52.030;5.350;2023-05-08T05:03:14;12.20;99.90
63966;DHT22;50151;52.030;5.350;2023-05-08T05:05:41;12.20;99.90
63966;DHT22;50151;52.030;5.350;2023-05-08T05:08:07;12.30;99.90
63966;DHT22;50151;52.030;5.350;2023-05-08T05:10:34;12.30;99.90
63966;DHT22;50151;52.030;5.350;2023-05-08T05:13:01;12.40;99.90
63966;DHT22;50151;52.030;5.350;2023-05-08T05:15:27;12.50;99.90
63966;DHT22;50151;52.030;5.350;2023-05-08T05:17:56;12.60;99.90
63966;DHT22;50151;52.030;5.350;2023-05-08T05:20:22;12.70;99.90
63966;DHT22;50151;52.030;5.350;2023-05-08T05:22:49;12.70;99.90
63966;DHT22;50151;52.030;5.350;2023-05-08T05:25:16;12.70;99.90
63966;DHT22;50151;52.030;5.350;2023-05-08T05:27:43;12.80;99.90
63966;DHT22;50151;52.030;5.350;2023-05-08T05:30:09;12.90;99.90
63966;DHT22;50151;52.030;5.350;2023-05-08T05:32:40;12.90;99.90
63966;DHT22;50151;52.030;5.350;2023-05-08T05:35:09;13.00;99.90
63966;DHT22;50151;52.030;5.350;2023-05-08T05:37:37;13.00;99.90
63966;DHT22;50151;52.030;5.350;2023-05-08T05:40:04;13.10;99.90
63966;DHT22;50151;52.030;5.350;2023-05-08T05:42:31;13.20;99.90
63966;DHT22;50151;52.030;5.350;2023-05-08T05:44:58;13.20;99.90
63966;DHT22;50151;52.030;5.350;2023-05-08T05:47:25;13.30;99.90
63966;DHT22;50151;52.030;5.350;2023-05-08T05:49:51;13.40;99.90
63966;DHT22;50151;52.030;5.350;2023-05-08T05:52:18;13.40;99.90
63966;DHT22;50151;52.030;5.350;2023-05-08T05:54:45;13.50;99.90
63966;DHT22;50151;52.030;5.350;2023-05-08T05:57:12;13.60;99.90
63966;DHT22;50151;52.030;5.350;2023-05-08T05:59:39;13.70;99.90
63966;DHT22;50151;52.030;5.350;2023-05-08T06:02:06;13.70;99.90
63966;DHT22;50151;52.030;5.350;2023-05-08T06:04:39;13.80;99.90
63966;DHT22;50151;52.030;5.350;2023-05-08T06:07:06;13.80;99.90
63966;DHT22;50151;52.030;5.350;2023-05-08T06:09:32;13.90;99.90
63966;DHT22;50151;52.030;5.350;2023-05-08T06:11:59;14.00;99.90
63966;DHT22;50151;52.030;5.350;2023-05-08T06:14:26;14.10;99.90
63966;DHT22;50151;52.030;5.350;2023-05-08T06:16:52;14.10;99.90
63966;DHT22;50151;52.030;5.350;2023-05-08T06:19:19;14.20;99.90
63966;DHT22;50151;52.030;5.350;2023-05-08T06:21:46;14.20;99.90
63966;DHT22;50151;52.030;5.350;2023-05-08T06:24:12;14.30;99.90
63966;DHT22;50151;52.030;5.350;2023-05-08T06:26:40;14.40;99.90
63966;DHT22;50151;52.030;5.350;2023-05-08T06:29:07;14.40;99.90
63966;DHT22;50151;52.030;5.350;2023-05-08T06:31:33;14.40;99.90
63966;DHT22;50151;52.030;5.350;2023-05-08T06:34:00;14.50;99.90
63966;DHT22;50151;52.030;5.350;2023-05-08T06:36:27;14.60;99.90
63966;DHT22;50151;52.030;5.350;2023-05-08T06:38:54;14.60;99.90
63966;DHT22;50151;52.030;5.350;2023-05-08T06:41:20;14.50;99.90
63966;DHT22;50151;52.030;5.350;2023-05-08T06:43:47;14.50;99.90
63966;DHT22;50151;52.030;5.350;2023-05-08T06:46:14;14.60;99.90
63966;DHT22;50151;52.030;5.350;2023-05-08T06:48:41;14.80;99.90
63966;DHT22;50151;52.030;5.350;2023-05-08T06:51:08;15.00;99.90
63966;DHT22;50151;52.030;5.350;2023-05-08T06:53:34;15.00;99.90
63966;DHT22;50151;52.030;5.350;2023-05-08T06:56:01;15.10;99.90
63966;DHT22;50151;52.030;5.350;2023-05-08T06:58:28;15.10;99.90
63966;DHT22;50151;52.030;5.350;2023-05-08T07:01:00;15.30;99.90
63966;DHT22;50151;52.030;5.350;2023-05-08T07:03:29;15.40;99.90
63966;DHT22;50151;52.030;5.350;2023-05-08T07:05:56;15.40;99.90
63966;DHT22;50151;52.030;5.350;2023-05-08T07:08:23;15.50;99.90
63966;DHT22;50151;52.030;5.350;2023-05-08T07:10:49;15.60;99.90
63966;DHT22;50151;52.030;5.350;2023-05-08T07:13:16;15.60;99.90
63966;DHT22;50151;52.030;5.350;2023-05-08T07:15:47;15.60;99.90
63966;DHT22;50151;52.030;5.350;2023-05-08T07:18:13;15.70;99.90
63966;DHT22;50151;52.030;5.350;2023-05-08T07:20:40;15.70;99.90
63966;DHT22;50151;52.030;5.350;2023-05-08T07:23:07;15.70;99.90
63966;DHT22;50151;52.030;5.350;2023-05-08T07:25:33;15.60;99.90
63966;DHT22;50151;52.030;5.350;2023-05-08T07:28:00;15.60;99.90
63966;DHT22;50151;52.030;5.350;2023-05-08T07:30:27;15.70;99.90
63966;DHT22;50151;52.030;5.350;2023-05-08T07:32:53;15.70;99.90
63966;DHT22;50151;52.030;5.350;2023-05-08T07:35:20;15.70;99.90
63966;DHT22;50151;52.030;5.350;2023-05-08T07:37:47;15.80;99.90
63966;DHT22;50151;52.030;5.350;2023-05-08T07:40:14;15.80;99.90
63966;DHT22;50151;52.030;5.350;2023-05-08T07:42:41;15.80;99.90
63966;DHT22;50151;52.030;5.350;2023-05-08T07:45:10;15.90;99.90
63966;DHT22;50151;52.030;5.350;2023-05-08T07:47:38;15.90;99.90
63966;DHT22;50151;52.030;5.350;2023-05-08T07:50:05;15.80;99.90
63966;DHT22;50151;52.030;5.350;2023-05-08T07:52:32;15.90;99.90
63966;DHT22;50151;52.030;5.350;2023-05-08T07:54:59;15.90;99.90
63966;DHT22;50151;52.030;5.350;2023-05-08T07:57:25;15.80;99.90
63966;DHT22;50151;52.030;5.350;2023-05-08T07:59:52;16.00;99.90
63966;DHT22;50151;52.030;5.350;2023-05-08T08:02:19;16.20;99.90
63966;DHT22;50151;52.030;5.350;2023-05-08T08:04:46;16.20;99.90
63966;DHT22;50151;52.030;5.350;2023-05-08T08:07:12;16.30;99.90
63966;DHT22;50151;52.030;5.350;2023-05-08T08:09:39;16.30;99.90
63966;DHT22;50151;52.030;5.350;2023-05-08T08:12:05;16.40;99.90
63966;DHT22;50151;52.030;5.350;2023-05-08T08:14:32;16.70;99.90
63966;DHT22;50151;52.030;5.350;2023-05-08T08:16:59;16.60;99.90
63966;DHT22;50151;52.030;5.350;2023-05-08T08:19:26;16.50;99.90
63966;DHT22;50151;52.030;5.350;2023-05-08T08:21:53;16.60;99.90
63966;DHT22;50151;52.030;5.350;2023-05-08T08:24:20;16.70;99.90
63966;DHT22;50151;52.030;5.350;2023-05-08T08:26:46;16.70;99.90
63966;DHT22;50151;52.030;5.350;2023-05-08T08:29:13;16.70;99.90
63966;DHT22;50151;52.030;5.350;2023-05-08T08:31:40;16.70;99.90
63966;DHT22;50151;52.030;5.350;2023-05-08T08:34:07;16.90;99.90
63966;DHT22;50151;52.030;5.350;2023-05-08T08:36:33;16.90;99.90
63966;DHT22;50151;52.030;5.350;2023-05-08T08:39:00;17.10;99.90
63966;DHT22;50151;52.030;5.350;2023-05-08T08:41:27;17.00;99.90
63966;DHT22;50151;52.030;5.350;2023-05-08T08:43:54;17.30;99.90
63966;DHT22;50151;52.030;5.350;2023-05-08T08:46:25;17.20;99.90
63966;DHT22;50151;52.030;5.350;2023-05-08T08:48:54;17.40;99.90
63966;DHT22;50151;52.030;5.350;2023-05-08T08:51:32;17.50;99.90
63966;DHT22;50151;52.030;5.350;2023-05-08T08:54:16;17.70;99.90
63966;DHT22;50151;52.030;5.350;2023-05-08T08:56:47;17.60;99.90
63966;DHT22;50151;52.030;5.350;2023-05-08T08:59:18;17.50;99.90
63966;DHT22;50151;52.030;5.350;2023-05-08T09:01:47;17.70;99.90
63966;DHT22;50151;52.030;5.350;2023-05-08T09:04:15;17.60;99.90
63966;DHT22;50151;52.030;5.350;2023-05-08T09:06:42;17.70;99.90
63966;DHT22;50151;52.030;5.350;2023-05-08T09:09:13;17.60;99.90
63966;DHT22;50151;52.030;5.350;2023-05-08T09:11:42;17.60;99.90
63966;DHT22;50151;52.030;5.350;2023-05-08T09:14:09;17.70;99.90
63966;DHT22;50151;52.030;5.350;2023-05-08T09:16:36;17.70;99.90
63966;DHT22;50151;52.030;5.350;2023-05-08T09:19:03;17.80;99.90
63966;DHT22;50151;52.030;5.350;2023-05-08T09:21:31;18.00;99.90
63966;DHT22;50151;52.030;5.350;2023-05-08T09:24:02;18.10;99.90
63966;DHT22;50151;52.030;5.350;2023-05-08T09:26:35;18.30;99.90
63966;DHT22;50151;52.030;5.350;2023-05-08T09:29:13;18.30;99.90
63966;DHT22;50151;52.030;5.350;2023-05-08T09:31:42;18.30;99.90
63966;DHT22;50151;52.030;5.350;2023-05-08T09:34:11;18.20;99.90
63966;DHT22;50151;52.030;5.350;2023-05-08T09:36:38;18.30;99.90
63966;DHT22;50151;52.030;5.350;2023-05-08T09:39:10;18.30;99.90
63966;DHT22;50151;52.030;5.350;2023-05-08T09:41:38;18.70;99.90
63966;DHT22;50151;52.030;5.350;2023-05-08T09:44:06;18.50;99.90
63966;DHT22;50151;52.030;5.350;2023-05-08T09:46:33;18.60;99.90
63966;DHT22;50151;52.030;5.350;2023-05-08T09:49:02;18.40;99.90
63966;DHT22;50151;52.030;5.350;2023-05-08T09:51:30;18.50;99.90
63966;DHT22;50151;52.030;5.350;2023-05-08T09:53:58;18.40;99.90
63966;DHT22;50151;52.030;5.350;2023-05-08T09:58:59;18.50;99.90
63966;DHT22;50151;52.030;5.350;2023-05-08T10:03:55;18.40;99.90
63966;DHT22;50151;52.030;5.350;2023-05-08T10:06:22;18.70;99.90
63966;DHT22;50151;52.030;5.350;2023-05-08T10:08:49;18.80;99.90
63966;DHT22;50151;52.030;5.350;2023-05-08T10:11:31;18.80;99.90
63966;DHT22;50151;52.030;5.350;2023-05-08T10:13:57;18.50;99.90
63966;DHT22;50151;52.030;5.350;2023-05-08T10:16:25;18.70;99.90
63966;DHT22;50151;52.030;5.350;2023-05-08T10:18:59;18.80;99.90
63966;DHT22;50151;52.030;5.350;2023-05-08T10:21:34;18.70;99.90
63966;DHT22;50151;52.030;5.350;2023-05-08T10:24:04;18.60;99.90
63966;DHT22;50151;52.030;5.350;2023-05-08T10:26:33;18.40;99.90
63966;DHT22;50151;52.030;5.350;2023-05-08T10:29:41;18.50;99.90
63966;DHT22;50151;52.030;5.350;2023-05-08T10:32:09;18.50;99.90
63966;DHT22;50151;52.030;5.350;2023-05-08T10:34:39;18.60;99.90
63966;DHT22;50151;52.030;5.350;2023-05-08T10:37:09;18.80;99.90
63966;DHT22;50151;52.030;5.350;2023-05-08T10:39:37;18.90;99.90
63966;DHT22;50151;52.030;5.350;2023-05-08T10:42:05;18.80;99.90
63966;DHT22;50151;52.030;5.350;2023-05-08T10:44:32;18.80;99.90
63966;DHT22;50151;52.030;5.350;2023-05-08T10:50:15;19.20;99.90
63966;DHT22;50151;52.030;5.350;2023-05-08T10:53:14;19.00;99.90
63966;DHT22;50151;52.030;5.350;2023-05-08T10:55:46;19.00;99.90
63966;DHT22;50151;52.030;5.350;2023-05-08T10:58:29;18.90;99.90
63966;DHT22;50151;52.030;5.350;2023-05-08T11:03:28;19.10;99.90
63966;DHT22;50151;52.030;5.350;2023-05-08T11:05:59;19.10;99.90
63966;DHT22;50151;52.030;5.350;2023-05-08T11:08:27;19.10;99.90
63966;DHT22;50151;52.030;5.350;2023-05-08T11:13:37;19.10;99.90
63966;DHT22;50151;52.030;5.350;2023-05-08T11:16:06;19.10;99.90
63966;DHT22;50151;52.030;5.350;2023-05-08T11:18:34;19.30;99.90
63966;DHT22;50151;52.030;5.350;2023-05-08T11:21:19;19.40;99.90
63966;DHT22;50151;52.030;5.350;2023-05-08T11:23:55;19.50;99.90
63966;DHT22;50151;52.030;5.350;2023-05-08T11:26:37;19.60;99.90
63966;DHT22;50151;52.030;5.350;2023-05-08T11:29:15;19.40;99.90
63966;DHT22;50151;52.030;5.350;2023-05-08T11:31:49;19.60;99.90
63966;DHT22;50151;52.030;5.350;2023-05-08T11:37:01;19.70;99.90
63966;DHT22;50151;52.030;5.350;2023-05-08T11:39:28;19.70;99.90
63966;DHT22;50151;52.030;5.350;2023-05-08T11:45:07;19.70;99.90
63966;DHT22;50151;52.030;5.350;2023-05-08T11:47:37;19.60;99.90
63966;DHT22;50151;52.030;5.350;2023-05-08T11:50:06;19.70;99.90
63966;DHT22;50151;52.030;5.350;2023-05-08T11:52:40;19.80;99.90
63966;DHT22;50151;52.030;5.350;2023-05-08T11:55:09;19.80;99.90
63966;DHT22;50151;52.030;5.350;2023-05-08T11:57:36;19.70;99.90
63966;DHT22;50151;52.030;5.350;2023-05-08T12:00:05;19.90;99.90
63966;DHT22;50151;52.030;5.350;2023-05-08T12:02:39;20.00;99.90
63966;DHT22;50151;52.030;5.350;2023-05-08T12:05:07;20.00;99.90
63966;DHT22;50151;52.030;5.350;2023-05-08T12:07:47;19.90;99.90
63966;DHT22;50151;52.030;5.350;2023-05-08T12:10:14;20.10;99.90
63966;DHT22;50151;52.030;5.350;2023-05-08T12:12:43;20.50;99.90
63966;DHT22;50151;52.030;5.350;2023-05-08T12:15:12;20.70;99.90
63966;DHT22;50151;52.030;5.350;2023-05-08T12:17:40;20.70;99.90
63966;DHT22;50151;52.030;5.350;2023-05-08T12:20:14;20.70;99.90
63966;DHT22;50151;52.030;5.350;2023-05-08T12:22:49;21.20;99.90
63966;DHT22;50151;52.030;5.350;2023-05-08T12:25:17;21.30;99.90
63966;DHT22;50151;52.030;5.350;2023-05-08T12:27:45;21.60;99.90
63966;DHT22;50151;52.030;5.350;2023-05-08T12:30:13;21.70;98.80
63966;DHT22;50151;52.030;5.350;2023-05-08T12:32:41;21.80;95.50
63966;DHT22;50151;52.030;5.350;2023-05-08T12:35:10;22.10;93.20
63966;DHT22;50151;52.030;5.350;2023-05-08T12:37:37;21.90;89.50
63966;DHT22;50151;52.030;5.350;2023-05-08T12:40:04;22.00;90.90
63966;DHT22;50151;52.030;5.350;2023-05-08T12:42:48;22.00;91.40
63966;DHT22;50151;52.030;5.350;2023-05-08T12:45:28;22.20;88.70
63966;DHT22;50151;52.030;5.350;2023-05-08T12:48:00;22.10;91.20
63966;DHT22;50151;52.030;5.350;2023-05-08T12:50:27;22.00;91.80
63966;DHT22;50151;52.030;5.350;2023-05-08T12:53:01;22.40;90.40
63966;DHT22;50151;52.030;5.350;2023-05-08T12:55:30;22.20;90.90
63966;DHT22;50151;52.030;5.350;2023-05-08T13:00:45;22.90;90.90
63966;DHT22;50151;52.030;5.350;2023-05-08T13:03:13;22.60;80.60
63966;DHT22;50151;52.030;5.350;2023-05-08T13:05:46;22.90;83.10
63966;DHT22;50151;52.030;5.350;2023-05-08T13:08:13;22.90;78.30
63966;DHT22;50151;52.030;5.350;2023-05-08T13:10:53;22.80;82.40
63966;DHT22;50151;52.030;5.350;2023-05-08T13:13:22;22.90;84.30
63966;DHT22;50151;52.030;5.350;2023-05-08T13:15:51;22.40;81.70
63966;DHT22;50151;52.030;5.350;2023-05-08T13:18:19;22.60;83.30
63966;DHT22;50151;52.030;5.350;2023-05-08T13:20:46;21.90;88.30
63966;DHT22;50151;52.030;5.350;2023-05-08T13:23:13;22.30;89.70
63966;DHT22;50151;52.030;5.350;2023-05-08T13:25:40;22.30;87.60
63966;DHT22;50151;52.030;5.350;2023-05-08T13:28:08;22.00;87.40
63966;DHT22;50151;52.030;5.350;2023-05-08T13:30:35;22.20;90.00
63966;DHT22;50151;52.030;5.350;2023-05-08T13:33:02;21.90;86.10
63966;DHT22;50151;52.030;5.350;2023-05-08T13:35:29;22.50;85.50
63966;DHT22;50151;52.030;5.350;2023-05-08T13:37:57;22.70;83.80
63966;DHT22;50151;52.030;5.350;2023-05-08T13:40:24;22.90;81.20
63966;DHT22;50151;52.030;5.350;2023-05-08T13:42:51;22.90;80.90
63966;DHT22;50151;52.030;5.350;2023-05-08T13:45:19;22.90;80.30
63966;DHT22;50151;52.030;5.350;2023-05-08T13:47:46;23.40;78.70
63966;DHT22;50151;52.030;5.350;2023-05-08T13:50:16;23.30;77.00
63966;DHT22;50151;52.030;5.350;2023-05-08T13:52:44;23.00;78.20
63966;DHT22;50151;52.030;5.350;2023-05-08T13:55:12;23.10;82.70
63966;DHT22;50151;52.030;5.350;2023-05-08T13:57:39;23.20;78.00
63966;DHT22;50151;52.030;5.350;2023-05-08T14:00:07;23.30;79.00
63966;DHT22;50151;52.030;5.350;2023-05-08T14:02:35;23.40;77.30
63966;DHT22;50151;52.030;5.350;2023-05-08T14:05:03;23.60;76.20
63966;DHT22;50151;52.030;5.350;2023-05-08T14:07:30;24.00;73.70
63966;DHT22;50151;52.030;5.350;2023-05-08T14:09:57;24.00;71.30
63966;DHT22;50151;52.030;5.350;2023-05-08T14:12:23;24.30;66.90
63966;DHT22;50151;52.030;5.350;2023-05-08T14:14:50;23.60;72.70
63966;DHT22;50151;52.030;5.350;2023-05-08T14:17:17;24.20;71.10
63966;DHT22;50151;52.030;5.350;2023-05-08T14:19:44;24.60;69.50
63966;DHT22;50151;52.030;5.350;2023-05-08T14:22:14;24.90;67.50
63966;DHT22;50151;52.030;5.350;2023-05-08T14:24:40;24.70;66.50
63966;DHT22;50151;52.030;5.350;2023-05-08T14:27:07;24.60;65.00
63966;DHT22;50151;52.030;5.350;2023-05-08T14:29:34;23.90;69.40
63966;DHT22;50151;52.030;5.350;2023-05-08T14:32:01;23.50;71.00
63966;DHT22;50151;52.030;5.350;2023-05-08T14:34:27;23.50;73.10
63966;DHT22;50151;52.030;5.350;2023-05-08T14:36:54;23.40;75.20
63966;DHT22;50151;52.030;5.350;2023-05-08T14:39:21;24.10;71.30
63966;DHT22;50151;52.030;5.350;2023-05-08T14:41:47;24.10;71.00
63966;DHT22;50151;52.030;5.350;2023-05-08T14:44:34;23.90;73.90
63966;DHT22;50151;52.030;5.350;2023-05-08T14:47:01;23.60;74.10
63966;DHT22;50151;52.030;5.350;2023-05-08T14:49:28;23.20;74.80
63966;DHT22;50151;52.030;5.350;2023-05-08T14:52:04;23.00;77.00
63966;DHT22;50151;52.030;5.350;2023-05-08T14:54:32;23.10;79.70
63966;DHT22;50151;52.030;5.350;2023-05-08T14:56:59;23.10;78.70
63966;DHT22;50151;52.030;5.350;2023-05-08T14:59:26;23.10;76.90
63966;DHT22;50151;52.030;5.350;2023-05-08T15:01:52;23.40;77.10
63966;DHT22;50151;52.030;5.350;2023-05-08T15:04:19;23.20;74.40
63966;DHT22;50151;52.030;5.350;2023-05-08T15:06:46;23.20;76.70
63966;DHT22;50151;52.030;5.350;2023-05-08T15:09:13;22.90;74.80
63966;DHT22;50151;52.030;5.350;2023-05-08T15:11:41;23.00;75.30
63966;DHT22;50151;52.030;5.350;2023-05-08T15:14:08;22.90;76.70
63966;DHT22;50151;52.030;5.350;2023-05-08T15:16:35;23.00;77.40
63966;DHT22;50151;52.030;5.350;2023-05-08T15:19:02;22.80;77.00
63966;DHT22;50151;52.030;5.350;2023-05-08T15:21:29;23.10;77.10
63966;DHT22;50151;52.030;5.350;2023-05-08T15:23:55;23.20;76.80
63966;DHT22;50151;52.030;5.350;2023-05-08T15:26:22;22.90;76.20
63966;DHT22;50151;52.030;5.350;2023-05-08T15:28:49;22.80;78.20
63966;DHT22;50151;52.030;5.350;2023-05-08T15:31:16;22.50;80.20
63966;DHT22;50151;52.030;5.350;2023-05-08T15:33:43;22.60;80.70
63966;DHT22;50151;52.030;5.350;2023-05-08T15:36:14;22.60;81.60
63966;DHT22;50151;52.030;5.350;2023-05-08T15:38:42;22.30;84.10
63966;DHT22;50151;52.030;5.350;2023-05-08T15:41:09;22.40;85.80
63966;DHT22;50151;52.030;5.350;2023-05-08T15:43:41;22.10;85.20
63966;DHT22;50151;52.030;5.350;2023-05-08T15:46:08;22.30;86.10
63966;DHT22;50151;52.030;5.350;2023-05-08T15:48:35;22.20;87.40
63966;DHT22;50151;52.030;5.350;2023-05-08T15:51:01;22.10;87.00
63966;DHT22;50151;52.030;5.350;2023-05-08T15:53:28;22.00;88.10
63966;DHT22;50151;52.030;5.350;2023-05-08T15:55:55;22.00;87.30
63966;DHT22;50151;52.030;5.350;2023-05-08T15:58:22;21.90;89.40
63966;DHT22;50151;52.030;5.350;2023-05-08T16:00:49;22.10;90.20
63966;DHT22;50151;52.030;5.350;2023-05-08T16:03:16;22.00;90.20
63966;DHT22;50151;52.030;5.350;2023-05-08T16:05:43;21.80;89.00
63966;DHT22;50151;52.030;5.350;2023-05-08T16:08:10;21.40;91.00
63966;DHT22;50151;52.030;5.350;2023-05-08T16:10:39;21.80;90.60
63966;DHT22;50151;52.030;5.350;2023-05-08T16:13:06;21.60;90.30
63966;DHT22;50151;52.030;5.350;2023-05-08T16:15:33;21.50;90.10
63966;DHT22;50151;52.030;5.350;2023-05-08T16:18:00;21.50;91.40
63966;DHT22;50151;52.030;5.350;2023-05-08T16:20:27;21.60;91.40
63966;DHT22;50151;52.030;5.350;2023-05-08T16:22:58;21.50;92.10